Aérodrome :
LOGIN :

S'inscrire | Disclaimer

   EN    FR    IT 

 










Légende :    VFR   VFR Marginal   IFR   IFR Intensif   IFR Très Intensif
Visi : 
Plafond : 
>= 8 km
>= 3000ft
5 à 8 km
1000 à 3000 ft
1500m à 5 km
500 à 1000 ft
800 à 1500m
200 à 500 ft
< 800m
< 200 ft
Symboles :   Orages  Brouillard  Fortes neiges  Fortes précipitations  Vent > 20 kt
SIGMETs :   Divers  Orages  Givrage  Turbulence  Onde Orograph.  Cendres Volcan.






- Altitude de l'aérodrome : 935 ft


EBFS - Florennes

DERNIER METAR :
  • 100455Z AUTO 22004KT 9999 BKN210/// 01/00 Q1026 BLU

METARs EXPIRÉS :
  • 100425Z AUTO 23005KT 9999 BKN210/// 01/01 Q1025 BLU
  • 100355Z AUTO 23005KT 9999 BKN210/// 01/01 Q1025 BLU
  • 100325Z AUTO 23004KT 9999 BKN220/// 01/01 Q1025 BLU
  • 100255Z AUTO 25006KT 9999 FEW050/// BKN220/// 01/01 Q1025 BLU
  • 100225Z AUTO 25007KT 9999 FEW024/// BKN050/// BKN220/// 02/01 Q1025 BLU
  • 100215Z AUTO 25007KT 9999 FEW024/// BKN050/// BKN220/// 02/02 Q1025 BLU

TAF TAF EBFS
Valide du 09 à 19h jusqu'au 10 à 07h UTC


091541Z 0919/1007 30010G20KT 9999 FEW012 SCT015
TEMPO 0919/0921 31015G30KT 4000 -SHRA SCT012 BKN015
BECMG 1002/1004 27005G15KT
BECMG 1004/1006 23005KT
TEMPO 1005/1007 23005KT 4000 BR FEW005 SCT010 BKN240



MET'MAP, la Météo Aéronautique d'un coup d'oeil ! - Copyright ORBIFLY Décembre 2007 - Disclaimer

ORBIFLY MET'MAP TEAM :

Programmation & Développement : Alexandra Zaïnal
Sur une idée originale de : Baudouin d'Aumeries
Assistance à la programmation : Marc-Olivier Méhu
Soutien technique & logistique : Manuel Goepfert

Contact : metmap@orbifly.com




SOURCES & CREDITS :

   NOAA